Conway Springs, KS

5:55 AM CDT on April 01, 2015 (GMT -0500)
McConnell Air Force Base | | Change Station
CLOSE
Current Station
Airport
Location: McConnell AFB,
Elevation: 1371 ft
Nearby Weather Stations
Active Advisory: Fire Weather Warning

Elev 1371 ft 37.62 °N, 97.27 °W | Updated 47 minutes ago

Partly Cloudy
Partly Cloudy
57 °F
Feels Like 57 °F
N
6
Wind Variable Wind from SE

Today
High -- | Low -- °F
--% Chance of Precip.
Yesterday
High -- | Low -- °F
Precip. -- in
7:16 AM 7:53 PM
Waxing Gibbous, 92% visible
Pressure 29.85 in
Visibility 10.0 miles
Clouds Clear
Dew Point 48 °F
Humidity 72%
Rainfall 0.00 in
Snow Depth Not available.
UV 0 out of 12
Pollen 9.30 out of 12
Air Quality Not available.
Flu Activity Not available.
SPECI KIAB 011008Z AUTO 13005KT 10SM CLR 14/09 A2985 RMK AO2

More Conditions Fewer Conditions

Pressure 29.85 in
Visibility 10.0 miles
Clouds Clear
Dew Point 48 °F
Humidity 72%
Rainfall 0.00 in
Snow Depth Not available.
UV 0 out of 12
Pollen 9.30 out of 12
Air Quality Not available.
Flu Activity Not available.
SPECI KIAB 011008Z AUTO 13005KT 10SM CLR 14/09 A2985 RMK AO2

More Conditions Fewer Conditions

10-Day Weather Forecast

Almanac

Astronomy

Apr. 01, 2015 Rise Set
Actual Time
Civil Twilight
Nautical Twilight
Astronomical Twilight
Moon
Length of Visible Light
Length of Day
Tomorrow will be .
, % of the Moon is Illuminated

Today's Extremes

State Highs State Lows

Community

WunderPhotos

Upload Photos

1,809,934 photos uploaded!

WunderBlogs® & News

Nearby

Air Quality

  Air Quality AQ Index Pollutant
Not available.

Snow Depth

Station Depth Elevation

Earthquake Activity

City Distance Mag. Time & Date
Minimum magnitude displayed is 2.5.

Coastal Water Temperatures

Place Temperature

Stations

Nearby Weather Stations

Station Location Temp. Windchill Dew Point Humidity Wind Precip. Elev Updated Type
                   
Fire Weather Warning
Statement as of 2:38 AM CDT on April 01, 2015

... Red flag warning in effect from 1 PM this afternoon to 7 PM
CDT this evening for extreme grassland fire danger for fire
weather zones 052... 053... 068... 069... 082... 083... 091 and 092...

The National Weather Service in Wichita has issued a red flag
warning for extreme grassland fire danger... which is in effect
from 1 PM this afternoon to 7 PM CDT this evening.

* Extreme grassland fire danger... is forecast.

* Winds... south around 25 mph with gusts up to 35 mph.

* Relative humidity... as low as 35 percent.

* Impacts... any fires that develop will likely spread rapidly
and become very difficult to control. Outdoor burning is not
recommended.

Precautionary/preparedness actions...

A red flag warning means that critical fire weather conditions
are either occurring now... or will shortly. A combination of
strong winds... low relative humidity... and warm temperatures
can contribute to extreme fire behavior.

Please advise the appropriate officials or fire crews in the
field of this fire weather product.



Jakub